createdAt,value
2019-01-24T00:00:19.332Z,-1.41
2019-01-24T00:02:46.084Z,-1.33
2019-01-24T00:05:12.828Z,-1.44
2019-01-24T00:07:39.577Z,-1.38
2019-01-24T00:10:07.568Z,-1.25
2019-01-24T00:12:34.369Z,-1.37
2019-01-24T00:15:01.097Z,-1.18
2019-01-24T00:17:27.836Z,-1.15
2019-01-24T00:19:54.586Z,-1.13
2019-01-24T00:22:21.324Z,-1.35
2019-01-24T00:24:48.081Z,-1.40
2019-01-24T00:27:14.817Z,-1.47
2019-01-24T00:29:41.569Z,-1.51
2019-01-24T00:32:08.322Z,-1.47
2019-01-24T00:34:35.080Z,-1.41
2019-01-24T00:37:01.835Z,-1.56
2019-01-24T00:39:28.592Z,-1.44
2019-01-24T00:41:55.337Z,-1.37
2019-01-24T00:44:22.101Z,-1.63
2019-01-24T00:46:48.845Z,-1.53
2019-01-24T00:49:15.587Z,-1.50
2019-01-24T00:51:42.316Z,-1.41
2019-01-24T00:54:09.088Z,-1.46
2019-01-24T00:56:35.819Z,-1.46
2019-01-24T00:59:02.583Z,-1.37
2019-01-24T01:01:29.336Z,-1.53
2019-01-24T01:03:56.116Z,-1.45
2019-01-24T01:06:22.844Z,-1.37
2019-01-24T01:08:49.712Z,-1.51
2019-01-24T01:11:16.436Z,-1.49
2019-01-24T01:13:43.248Z,-1.47
2019-01-24T01:16:09.945Z,-1.42
2019-01-24T01:18:36.716Z,-1.51
2019-01-24T01:21:03.457Z,-1.48
2019-01-24T01:23:30.217Z,-1.43
2019-01-24T01:25:56.994Z,-1.46
2019-01-24T01:28:23.805Z,-1.26
2019-01-24T01:30:50.552Z,-1.22
2019-01-24T01:33:17.304Z,-1.11
2019-01-24T01:35:44.076Z,-1.03
2019-01-24T01:38:10.810Z,-1.03
2019-01-24T01:40:37.575Z,-1.17
2019-01-24T01:43:04.347Z,-0.94
2019-01-24T01:45:31.101Z,-0.98
2019-01-24T01:47:57.850Z,-1.26
2019-01-24T01:50:24.635Z,-1.00
2019-01-24T01:52:51.407Z,-0.94
2019-01-24T01:55:18.161Z,-1.15
2019-01-24T01:57:44.892Z,-1.09
2019-01-24T02:00:17.024Z,-1.00
2019-01-24T02:02:43.776Z,-1.14
2019-01-24T02:05:10.608Z,-1.08
2019-01-24T02:07:37.348Z,-1.07
2019-01-24T02:10:05.697Z,-1.18
2019-01-24T02:12:32.452Z,-1.14
2019-01-24T02:14:59.200Z,-1.01
2019-01-24T02:17:25.951Z,-1.15
2019-01-24T02:19:52.697Z,-1.01
2019-01-24T02:22:19.436Z,-0.92
2019-01-24T02:24:46.209Z,-1.25
2019-01-24T02:27:12.944Z,-1.29
2019-01-24T02:29:39.733Z,-1.32
2019-01-24T02:32:06.465Z,-1.50
2019-01-24T02:34:33.216Z,-1.48
2019-01-24T02:36:59.968Z,-1.51
2019-01-24T02:39:26.736Z,-1.65
2019-01-24T02:41:53.476Z,-1.47
2019-01-24T02:44:20.298Z,-1.41
2019-01-24T02:46:47.056Z,-1.51
2019-01-24T02:49:13.831Z,-1.32
2019-01-24T02:51:40.588Z,-1.30
2019-01-24T02:54:07.363Z,-1.43
2019-01-24T02:56:34.096Z,-1.39
2019-01-24T02:59:00.829Z,-1.36
2019-01-24T03:01:27.596Z,-1.53
2019-01-24T03:03:54.338Z,-1.36
2019-01-24T03:06:21.088Z,-1.35
2019-01-24T03:08:47.834Z,-1.47
2019-01-24T03:11:14.579Z,-1.45
2019-01-24T03:13:41.308Z,-1.32
2019-01-24T03:16:08.073Z,-1.37
2019-01-24T03:18:34.813Z,-1.43
2019-01-24T03:21:01.569Z,-1.65
2019-01-24T03:23:28.305Z,-1.54
2019-01-24T03:25:55.068Z,-1.42
2019-01-24T03:28:21.844Z,-1.52
2019-01-24T03:30:48.606Z,-1.39
2019-01-24T03:33:15.345Z,-1.28
2019-01-24T03:35:42.109Z,-1.01
2019-01-24T03:38:08.844Z,-1.21
2019-01-24T03:40:35.592Z,-1.18
2019-01-24T03:43:02.350Z,-1.00
2019-01-24T03:45:29.113Z,-1.21
2019-01-24T03:47:55.863Z,-1.05
2019-01-24T03:50:22.619Z,-0.90
2019-01-24T03:52:49.480Z,-1.24
2019-01-24T03:55:17.493Z,-1.08
2019-01-24T03:57:44.241Z,-0.99
2019-01-24T04:00:13.540Z,-1.22
2019-01-24T04:02:40.284Z,-1.07
2019-01-24T04:05:11.761Z,-0.94
2019-01-24T04:07:33.809Z,-1.23
2019-01-24T04:10:00.572Z,-1.11
2019-01-24T04:12:27.305Z,-1.06
2019-01-24T04:14:54.072Z,-1.28
2019-01-24T04:17:20.805Z,-1.17
2019-01-24T04:19:47.540Z,-1.06
2019-01-24T04:22:14.299Z,-1.28
2019-01-24T04:24:41.049Z,-1.18
2019-01-24T04:27:07.819Z,-1.21
2019-01-24T04:29:34.565Z,-1.23
2019-01-24T04:32:01.312Z,-1.25
2019-01-24T04:34:28.107Z,-1.21
2019-01-24T04:36:54.869Z,-1.42
2019-01-24T04:39:21.610Z,-1.33
2019-01-24T04:41:48.352Z,-1.61
2019-01-24T04:44:15.084Z,-1.55
2019-01-24T04:46:41.841Z,-1.64
2019-01-24T04:49:08.760Z,-1.52
2019-01-24T04:51:35.316Z,-1.36
2019-01-24T04:54:02.061Z,-1.52
2019-01-24T04:56:28.837Z,-1.49
2019-01-24T04:58:55.560Z,-1.42
2019-01-24T05:01:22.358Z,-1.57
2019-01-24T05:03:49.093Z,-1.52
2019-01-24T05:06:15.943Z,-1.44
2019-01-24T05:08:42.687Z,-1.62
2019-01-24T05:11:09.480Z,-1.50
2019-01-24T05:13:36.231Z,-1.45
2019-01-24T05:16:03.055Z,-1.51
2019-01-24T05:18:29.785Z,-1.51
2019-01-24T05:20:56.537Z,-1.53
2019-01-24T05:23:23.308Z,-1.47
2019-01-24T05:25:50.077Z,-1.50
2019-01-24T05:28:16.806Z,-1.37
2019-01-24T05:30:43.654Z,-1.17
2019-01-24T05:33:10.396Z,-1.28
2019-01-24T05:35:37.169Z,-1.14
2019-01-24T05:38:03.884Z,-1.13
2019-01-24T05:40:30.661Z,-1.15
2019-01-24T05:42:57.396Z,-1.03
2019-01-24T05:45:24.140Z,-1.16
2019-01-24T05:47:50.904Z,-1.12
2019-01-24T05:50:17.651Z,-1.04
2019-01-24T05:52:44.420Z,-1.18
2019-01-24T05:55:11.170Z,-1.14
2019-01-24T05:57:37.936Z,-1.05
2019-01-24T06:00:06.234Z,-1.25
2019-01-24T06:02:33.003Z,-1.10
2019-01-24T06:04:59.740Z,-0.99
2019-01-24T06:07:26.613Z,-1.30
2019-01-24T06:09:53.379Z,-1.05
2019-01-24T06:12:20.140Z,-0.89
2019-01-24T06:14:46.885Z,-1.20
2019-01-24T06:17:13.640Z,-1.00
2019-01-24T06:19:40.383Z,-0.90
2019-01-24T06:22:07.185Z,-1.29
2019-01-24T06:24:33.933Z,-1.05
2019-01-24T06:27:00.697Z,-0.96
2019-01-24T06:29:27.444Z,-1.12
2019-01-24T06:31:54.416Z,-1.02
2019-01-24T06:34:21.183Z,-0.99
2019-01-24T06:36:47.956Z,-0.91
2019-01-24T06:39:14.699Z,-1.09
2019-01-24T06:41:41.478Z,-0.97
2019-01-24T06:44:08.220Z,-0.94
2019-01-24T06:46:35.045Z,-1.09
2019-01-24T06:49:01.777Z,-1.03
2019-01-24T06:51:28.536Z,-1.34
2019-01-24T06:53:55.299Z,-1.20
2019-01-24T06:56:22.153Z,-1.10
2019-01-24T06:58:48.888Z,-1.31
2019-01-24T07:01:15.632Z,-1.25
2019-01-24T07:03:42.425Z,-1.17
2019-01-24T07:06:09.213Z,-1.26
2019-01-24T07:08:35.972Z,-1.22
2019-01-24T07:11:02.732Z,-1.21
2019-01-24T07:13:29.490Z,-1.41
2019-01-24T07:15:56.232Z,-1.19
2019-01-24T07:18:23.038Z,-1.17
2019-01-24T07:20:50.213Z,-1.25
2019-01-24T07:23:17.077Z,-1.24
2019-01-24T07:25:43.832Z,-1.21
2019-01-24T07:28:10.596Z,-1.44
2019-01-24T07:30:37.351Z,-1.24
2019-01-24T07:33:04.110Z,-1.40
2019-01-24T07:35:30.860Z,-1.52
2019-01-24T07:37:57.626Z,-1.60
2019-01-24T07:40:24.361Z,-1.70
2019-01-24T07:42:51.132Z,-1.83
2019-01-24T07:45:23.667Z,-1.72
2019-01-24T07:47:50.598Z,-1.54
2019-01-24T07:50:17.354Z,-1.60
2019-01-24T07:52:44.107Z,-1.59
2019-01-24T07:55:10.911Z,-1.50
2019-01-24T07:57:37.738Z,-1.71
2019-01-24T08:00:07.555Z,-1.64
2019-01-24T08:02:34.315Z,-1.68
2019-01-24T08:05:01.059Z,-1.69
2019-01-24T08:07:27.809Z,-1.69
2019-01-24T08:09:54.544Z,-1.70
2019-01-24T08:12:21.304Z,-1.78
2019-01-24T08:14:48.044Z,-1.64
2019-01-24T08:17:14.801Z,-1.48
2019-01-24T08:19:41.553Z,-1.59
2019-01-24T08:22:08.281Z,-1.43
2019-01-24T08:24:35.024Z,-1.35
2019-01-24T08:27:01.796Z,-1.37
2019-01-24T08:29:28.569Z,-1.44
2019-01-24T08:31:55.300Z,-1.21
2019-01-24T08:34:22.064Z,-1.36
2019-01-24T08:36:48.820Z,-1.37
2019-01-24T08:39:15.583Z,-1.31
2019-01-24T08:41:42.327Z,-1.29
2019-01-24T08:44:09.118Z,-1.04
2019-01-24T08:46:35.847Z,-0.86
2019-01-24T08:49:02.619Z,-1.03
2019-01-24T08:51:29.352Z,-1.00
2019-01-24T08:53:56.121Z,-0.90
2019-01-24T08:56:22.857Z,-1.09
2019-01-24T08:58:49.619Z,-0.89
2019-01-24T09:01:16.356Z,-0.78
2019-01-24T09:03:43.142Z,-1.08
2019-01-24T09:06:09.852Z,-1.00
2019-01-24T09:08:36.612Z,-0.82
2019-01-24T09:11:03.361Z,-0.97
2019-01-24T09:13:30.111Z,-0.97
2019-01-24T09:15:56.845Z,-1.11
2019-01-24T09:18:23.612Z,-1.11
2019-01-24T09:20:50.344Z,-0.95
2019-01-24T09:23:17.197Z,-0.78
2019-01-24T09:25:43.978Z,-0.88
2019-01-24T09:28:14.747Z,-0.78
2019-01-24T09:30:37.512Z,-0.58
2019-01-24T09:33:04.428Z,-0.79
2019-01-24T09:35:31.155Z,-0.68
2019-01-24T09:37:57.920Z,-0.80
2019-01-24T09:40:24.936Z,-1.24
2019-01-24T09:42:51.706Z,-0.85
2019-01-24T09:45:22.172Z,-0.88
2019-01-24T09:47:48.930Z,-1.05
2019-01-24T09:50:17.833Z,-0.99
2019-01-24T09:52:44.600Z,-0.90
2019-01-24T09:55:11.380Z,-0.86
2019-01-24T09:57:38.112Z,-0.92
2019-01-24T10:00:08.687Z,-1.10
2019-01-24T10:02:35.425Z,-0.96
2019-01-24T10:05:02.199Z,-0.84
2019-01-24T10:07:28.933Z,-0.88
2019-01-24T10:09:55.693Z,-1.00
2019-01-24T10:12:22.445Z,-0.99
2019-01-24T10:14:49.193Z,-0.93
2019-01-24T10:17:15.928Z,-0.75
2019-01-24T10:19:42.692Z,-0.84
2019-01-24T10:22:09.416Z,-0.84
2019-01-24T10:24:36.176Z,-0.61
2019-01-24T10:27:02.993Z,-0.74
2019-01-24T10:29:29.766Z,-0.71
2019-01-24T10:31:56.508Z,-0.49
2019-01-24T10:34:23.276Z,-0.72
2019-01-24T10:36:50.012Z,-0.56
2019-01-24T10:39:16.772Z,-0.32
2019-01-24T10:41:43.517Z,-0.07
2019-01-24T10:44:10.310Z,0.02
2019-01-24T10:46:37.066Z,-0.20
2019-01-24T10:49:03.850Z,-0.06
2019-01-24T10:51:30.596Z,0.06
2019-01-24T10:53:57.367Z,-0.13
2019-01-24T10:56:24.117Z,-0.17
2019-01-24T10:58:50.873Z,-0.18
2019-01-24T11:01:17.632Z,-0.25
2019-01-24T11:03:44.376Z,0.02
2019-01-24T11:06:11.128Z,-0.08
2019-01-24T11:08:37.877Z,0.11
2019-01-24T11:11:04.641Z,0.46
2019-01-24T11:13:31.372Z,0.71
2019-01-24T11:15:58.140Z,0.46
2019-01-24T11:18:24.889Z,0.60
2019-01-24T11:20:51.741Z,0.65
2019-01-24T11:23:18.496Z,0.21
2019-01-24T11:25:45.280Z,0.48
2019-01-24T11:28:12.062Z,0.57
2019-01-24T11:30:38.908Z,0.35
2019-01-24T11:33:05.949Z,0.39
2019-01-24T11:35:33.390Z,0.35
2019-01-24T11:38:00.158Z,0.15
2019-01-24T11:40:26.932Z,0.08
2019-01-24T11:42:53.697Z,0.38
2019-01-24T11:45:22.448Z,0.03
2019-01-24T11:47:49.192Z,0.32
2019-01-24T11:50:16.984Z,0.99
2019-01-24T11:52:43.765Z,0.60
2019-01-24T11:55:11.399Z,1.25
2019-01-24T11:57:38.176Z,1.61
2019-01-24T12:00:12.664Z,1.10
2019-01-24T12:02:39.844Z,1.29
2019-01-24T12:05:07.668Z,1.31
2019-01-24T12:07:34.418Z,0.65
2019-01-24T12:10:01.188Z,0.82
2019-01-24T12:12:27.930Z,0.96
2019-01-24T12:14:54.692Z,0.76
2019-01-24T12:17:21.508Z,1.08
2019-01-24T12:19:48.272Z,0.81
2019-01-24T12:22:15.061Z,0.89
2019-01-24T12:24:41.825Z,1.27
2019-01-24T12:27:08.577Z,0.84
2019-01-24T12:29:35.333Z,1.39
2019-01-24T12:32:02.104Z,0.99
2019-01-24T12:34:28.836Z,1.39
2019-01-24T12:36:55.630Z,0.88
2019-01-24T12:39:22.381Z,1.46
2019-01-24T12:41:49.156Z,1.01
2019-01-24T12:44:15.921Z,1.41
2019-01-24T12:46:42.672Z,1.61
2019-01-24T12:49:09.457Z,0.97
2019-01-24T12:51:36.204Z,1.35
2019-01-24T12:54:03.012Z,1.04
2019-01-24T12:56:29.734Z,1.48
2019-01-24T12:58:56.500Z,1.61
2019-01-24T13:01:23.268Z,1.14
2019-01-24T13:03:50.028Z,1.17
2019-01-24T13:06:16.792Z,0.75
2019-01-24T13:08:43.556Z,0.74
2019-01-24T13:11:10.922Z,0.27
2019-01-24T13:13:37.720Z,0.36
2019-01-24T13:16:04.487Z,0.01
2019-01-24T13:18:31.244Z,0.51
2019-01-24T13:20:58.027Z,0.76
2019-01-24T13:23:25.757Z,0.21
2019-01-24T13:25:52.445Z,0.52
2019-01-24T13:28:19.196Z,0.55
2019-01-24T13:30:45.959Z,0.73
2019-01-24T13:33:12.698Z,0.84
2019-01-24T13:35:39.492Z,0.32
2019-01-24T13:38:06.308Z,0.64
2019-01-24T13:40:33.084Z,0.10
2019-01-24T13:43:00.765Z,0.24
2019-01-24T13:45:30.667Z,-0.04
2019-01-24T13:47:57.441Z,-0.30
2019-01-24T13:50:24.200Z,-0.17
2019-01-24T13:52:51.023Z,-0.46
2019-01-24T13:55:17.792Z,-0.12
2019-01-24T13:57:44.539Z,0.21
2019-01-24T14:00:17.164Z,-0.09
2019-01-24T14:02:44.277Z,-0.13
2019-01-24T14:05:12.376Z,-0.48
2019-01-24T14:07:39.127Z,-0.20
2019-01-24T14:10:06.564Z,-0.36
2019-01-24T14:12:33.311Z,-0.08
2019-01-24T14:15:00.093Z,0.08
2019-01-24T14:17:26.844Z,-0.04
2019-01-24T14:19:53.600Z,-0.10
2019-01-24T14:22:20.348Z,-0.25
2019-01-24T14:24:47.113Z,-0.07
2019-01-24T14:27:15.308Z,-0.28
2019-01-24T14:29:40.626Z,-0.05
2019-01-24T14:32:07.372Z,-0.01
2019-01-24T14:34:34.140Z,-0.25
2019-01-24T14:37:00.916Z,-0.17
2019-01-24T14:39:27.681Z,-0.34
2019-01-24T14:41:54.416Z,-0.15
2019-01-24T14:44:21.208Z,-0.18
2019-01-24T14:46:47.960Z,-0.37
2019-01-24T14:49:14.700Z,-0.11
2019-01-24T14:51:41.453Z,0.10
2019-01-24T14:54:08.209Z,-0.18
2019-01-24T14:56:34.965Z,0.13
2019-01-24T14:59:01.724Z,-0.29
2019-01-24T15:01:28.485Z,-0.15
2019-01-24T15:03:55.228Z,0.14
2019-01-24T15:06:22.004Z,-0.44
2019-01-24T15:08:48.753Z,0.01
2019-01-24T15:11:15.544Z,-0.26
2019-01-24T15:13:42.276Z,-0.05
2019-01-24T15:16:09.033Z,0.05
2019-01-24T15:18:35.793Z,-0.46
2019-01-24T15:21:02.706Z,-0.15
2019-01-24T15:23:29.477Z,-0.34
2019-01-24T15:25:56.232Z,-0.21
2019-01-24T15:28:22.969Z,-0.04
2019-01-24T15:30:49.737Z,-0.29
2019-01-24T15:33:16.489Z,0.14
2019-01-24T15:35:43.296Z,-0.18
2019-01-24T15:38:10.048Z,0.06
2019-01-24T15:40:36.852Z,-0.17
2019-01-24T15:43:03.934Z,0.16
2019-01-24T15:45:30.716Z,-0.37
2019-01-24T15:47:57.514Z,0.10
2019-01-24T15:50:24.267Z,-0.56
2019-01-24T15:52:51.118Z,-0.31
2019-01-24T15:55:17.876Z,0.01
2019-01-24T15:57:44.748Z,0.23
2019-01-24T16:00:16.459Z,-0.27
2019-01-24T16:02:43.218Z,0.11
2019-01-24T16:05:09.967Z,0.31
2019-01-24T16:07:36.744Z,-0.13
2019-01-24T16:10:04.790Z,-0.04
2019-01-24T16:12:31.756Z,-0.48
2019-01-24T16:14:58.512Z,-0.13
2019-01-24T16:17:25.281Z,0.04
2019-01-24T16:19:52.024Z,-0.50
2019-01-24T16:22:18.784Z,-0.28
2019-01-24T16:24:45.524Z,-0.29
2019-01-24T16:27:12.323Z,-0.56
2019-01-24T16:29:39.049Z,-0.30
2019-01-24T16:32:05.822Z,-0.58
2019-01-24T16:34:32.576Z,-0.19
2019-01-24T16:36:59.364Z,-0.13
2019-01-24T16:39:26.128Z,-0.55
2019-01-24T16:41:52.981Z,-0.25
2019-01-24T16:44:19.888Z,-0.02
2019-01-24T16:46:46.653Z,-0.50
2019-01-24T16:49:13.410Z,-0.06
2019-01-24T16:51:40.169Z,-0.11
2019-01-24T16:54:06.916Z,-0.47
2019-01-24T16:56:33.660Z,-0.24
2019-01-24T16:59:00.416Z,-0.39
2019-01-24T17:01:27.176Z,-0.82
2019-01-24T17:03:53.916Z,-0.28
2019-01-24T17:06:20.681Z,-0.40
2019-01-24T17:08:48.184Z,-0.66
2019-01-24T17:11:14.960Z,-0.25
2019-01-24T17:13:41.713Z,-0.11
2019-01-24T17:16:08.573Z,-0.09
2019-01-24T17:18:35.328Z,-0.65
2019-01-24T17:21:02.064Z,-0.36
2019-01-24T17:23:28.825Z,-0.16
2019-01-24T17:25:55.687Z,-0.57
2019-01-24T17:28:22.444Z,-0.45
2019-01-24T17:30:49.188Z,-0.33
2019-01-24T17:33:15.968Z,-0.72
2019-01-24T17:35:42.732Z,-0.41
2019-01-24T17:38:09.485Z,-0.87
2019-01-24T17:40:36.265Z,-0.41
2019-01-24T17:43:03.047Z,-0.24
2019-01-24T17:45:29.836Z,-0.70
2019-01-24T17:47:56.624Z,-0.28
2019-01-24T17:50:23.386Z,-0.10
2019-01-24T17:52:50.253Z,-0.57
2019-01-24T17:55:19.868Z,-0.18
2019-01-24T17:57:46.608Z,-0.07
2019-01-24T18:00:16.001Z,-0.72
2019-01-24T18:02:42.784Z,-0.23
2019-01-24T18:05:09.589Z,-0.10
2019-01-24T18:07:36.300Z,0.11
2019-01-24T18:10:04.960Z,-0.48
2019-01-24T18:12:31.708Z,0.04
2019-01-24T18:14:58.460Z,0.10
2019-01-24T18:17:25.212Z,-0.48
2019-01-24T18:19:51.976Z,-0.12
2019-01-24T18:22:18.720Z,-0.19
2019-01-24T18:24:45.485Z,-0.58
2019-01-24T18:27:12.216Z,-0.23
2019-01-24T18:29:38.948Z,0.02
2019-01-24T18:32:06.184Z,-0.68
2019-01-24T18:34:32.970Z,-0.29
2019-01-24T18:36:59.706Z,-0.19
2019-01-24T18:39:26.448Z,-0.70
2019-01-24T18:41:53.200Z,-0.08
2019-01-24T18:44:20.088Z,-0.49
2019-01-24T18:46:46.849Z,-0.15
2019-01-24T18:49:13.584Z,0.12
2019-01-24T18:51:40.385Z,-0.56
2019-01-24T18:54:07.136Z,-0.09
2019-01-24T18:56:33.909Z,-0.62
2019-01-24T18:59:00.657Z,-0.21
2019-01-24T19:01:27.429Z,-0.65
2019-01-24T19:03:54.168Z,-0.08
2019-01-24T19:06:20.948Z,-0.54
2019-01-24T19:08:47.793Z,0.08
2019-01-24T19:11:14.556Z,-0.49
2019-01-24T19:13:41.327Z,0.11
2019-01-24T19:16:08.164Z,0.31
2019-01-24T19:18:35.987Z,-0.27
2019-01-24T19:21:01.692Z,0.25
2019-01-24T19:23:28.437Z,-0.21
2019-01-24T19:25:55.188Z,0.08
2019-01-24T19:28:21.936Z,-0.37
2019-01-24T19:30:48.712Z,-0.11
2019-01-24T19:33:15.456Z,-0.03
2019-01-24T19:35:42.236Z,-0.68
2019-01-24T19:38:09.010Z,-0.30
2019-01-24T19:40:35.760Z,-0.44
2019-01-24T19:43:02.511Z,-0.74
2019-01-24T19:45:29.276Z,-0.57
2019-01-24T19:47:56.014Z,-0.89
2019-01-24T19:50:24.341Z,-1.13
2019-01-24T19:52:51.146Z,-1.27
2019-01-24T19:55:17.864Z,-1.27
2019-01-24T19:57:44.620Z,-1.21
2019-01-24T20:00:14.013Z,-0.92
2019-01-24T20:02:40.773Z,-0.76
2019-01-24T20:05:08.953Z,-0.96
2019-01-24T20:07:35.731Z,-1.00
2019-01-24T20:10:02.538Z,-0.90
2019-01-24T20:12:29.300Z,-1.20
2019-01-24T20:14:56.120Z,-1.01
2019-01-24T20:17:23.205Z,-0.76
2019-01-24T20:19:49.961Z,-0.83
2019-01-24T20:22:16.732Z,-1.27
2019-01-24T20:24:43.472Z,-1.21
2019-01-24T20:27:10.284Z,-1.17
2019-01-24T20:29:37.059Z,-1.39
2019-01-24T20:32:03.816Z,-1.35
2019-01-24T20:34:30.565Z,-1.32
2019-01-24T20:36:57.483Z,-1.46
2019-01-24T20:39:24.231Z,-1.39
2019-01-24T20:41:51.096Z,-1.24
2019-01-24T20:44:17.841Z,-1.38
2019-01-24T20:46:44.700Z,-1.09
2019-01-24T20:49:11.425Z,-0.96
2019-01-24T20:51:38.192Z,-1.46
2019-01-24T20:54:04.935Z,-1.50
2019-01-24T20:56:31.712Z,-1.61
2019-01-24T20:58:58.448Z,-1.77
2019-01-24T21:01:25.228Z,-1.70
2019-01-24T21:03:55.523Z,-1.55
2019-01-24T21:06:18.723Z,-1.59
2019-01-24T21:08:45.533Z,-1.65
2019-01-24T21:11:12.272Z,-1.71
2019-01-24T21:13:39.032Z,-1.71
2019-01-24T21:16:05.780Z,-1.54
2019-01-24T21:18:32.553Z,-1.86
2019-01-24T21:20:59.328Z,-1.81
2019-01-24T21:23:26.101Z,-1.77
2019-01-24T21:25:52.836Z,-1.84
2019-01-24T21:28:19.600Z,-1.71
2019-01-24T21:30:46.340Z,-1.54
2019-01-24T21:33:13.101Z,-1.73
2019-01-24T21:35:39.844Z,-1.48
2019-01-24T21:38:07.268Z,-1.48
2019-01-24T21:40:34.021Z,-1.67
2019-01-24T21:43:00.797Z,-1.57
2019-01-24T21:45:29.662Z,-1.58
2019-01-24T21:47:56.433Z,-1.58
2019-01-24T21:50:24.184Z,-1.34
2019-01-24T21:52:50.941Z,-1.57
2019-01-24T21:55:18.296Z,-1.67
2019-01-24T21:57:45.084Z,-1.72
2019-01-24T22:00:13.788Z,-1.56
2019-01-24T22:02:40.557Z,-1.85
2019-01-24T22:05:07.660Z,-1.83
2019-01-24T22:07:34.407Z,-1.72
2019-01-24T22:10:01.156Z,-1.89
2019-01-24T22:12:27.924Z,-1.95
2019-01-24T22:14:54.680Z,-1.88
2019-01-24T22:17:21.420Z,-2.01
2019-01-24T22:19:48.176Z,-1.86
2019-01-24T22:22:14.920Z,-1.95
2019-01-24T22:24:41.672Z,-1.91
2019-01-24T22:27:08.416Z,-1.93
2019-01-24T22:29:35.163Z,-1.89
2019-01-24T22:32:01.900Z,-1.86
2019-01-24T22:34:28.657Z,-1.84
2019-01-24T22:36:55.388Z,-1.90
2019-01-24T22:39:22.141Z,-1.93
2019-01-24T22:41:48.908Z,-1.84
2019-01-24T22:44:15.656Z,-1.87
2019-01-24T22:46:42.416Z,-1.91
2019-01-24T22:49:10.241Z,-1.74
2019-01-24T22:51:35.923Z,-1.90
2019-01-24T22:54:02.686Z,-1.92
2019-01-24T22:56:35.378Z,-1.90
2019-01-24T22:58:56.175Z,-1.98
2019-01-24T23:01:41.960Z,-1.90
2019-01-24T23:04:11.277Z,-2.05
2019-01-24T23:06:38.015Z,-2.10
2019-01-24T23:09:07.632Z,-2.00
2019-01-24T23:11:34.366Z,-2.02
2019-01-24T23:14:01.200Z,-1.97
2019-01-24T23:16:27.960Z,-2.04
2019-01-24T23:18:54.717Z,-2.07
2019-01-24T23:21:21.461Z,-2.19
2019-01-24T23:23:48.215Z,-2.26
2019-01-24T23:26:14.952Z,-2.15
2019-01-24T23:28:41.752Z,-2.28
2019-01-24T23:31:08.487Z,-2.24
2019-01-24T23:33:35.249Z,-2.21
2019-01-24T23:36:01.991Z,-2.35
2019-01-24T23:38:28.760Z,-2.21
2019-01-24T23:40:55.500Z,-2.22
2019-01-24T23:43:22.282Z,-2.37
2019-01-24T23:45:49.044Z,-2.27
2019-01-24T23:48:15.804Z,-2.42
2019-01-24T23:50:42.564Z,-2.36
2019-01-24T23:53:09.316Z,-2.24
2019-01-24T23:55:36.072Z,-2.15
2019-01-24T23:58:02.844Z,-1.98
